Saturday, February 6, 2016, 1:12 PM EST

KLNS, Lancaster Airport

Location: Lititz, PA, United States Lat: 40.117
Local Time: 1:12 PM EST (18:12 GMT) Lon: -76.3
Time Zone: US/Eastern Elev: 403 ft

Show me the last for .
Show Decoded

2016-02-06 12:53 METAR KLNS 061753Z 26006KT 10SM CLR 04/M07 A3033 RMK AO2 SLP276 T00441067 10044
                 21061 58030 =
2016-02-06 11:53 METAR KLNS 061653Z 23005KT 10SM CLR 03/M07 A3038 RMK AO2 SLP290 T00331067 =
2016-02-06 10:53 METAR KLNS 061553Z 00000KT 10SM CLR 01/M04 A3041 RMK AO2 SLP302 T00111044 =
2016-02-06 09:53 METAR KLNS 061453Z 09003KT 10SM CLR M02/M06 A3042 RMK AO2 SLP307 T10171061 50005
                 =
2016-02-06 08:53 METAR KLNS 061353Z 00000KT 8SM CLR M03/M06 A3043 RMK AO2 SLP310 T10331061 =
2016-02-06 07:53 METAR KLNS 061253Z AUTO 00000KT 6SM BR CLR M05/M07 A3042 RMK AO2 SLP307
                 T10501072 =
2016-02-06 06:53 METAR KLNS 061153Z AUTO 00000KT 10SM CLR M06/M08 A3041 RMK AO2 SLP302 T10561078
                 11028 21056 51013 =
2016-02-06 05:53 METAR KLNS 061053Z AUTO 00000KT 10SM CLR M05/M08 A3040 RMK AO2 SLP301 T10501078
                 =
2016-02-06 04:53 METAR KLNS 060953Z AUTO 00000KT 10SM CLR M06/M08 A3039 RMK AO2 SLP294 T10561083
                 =
2016-02-06 03:53 METAR KLNS 060853Z AUTO 00000KT 10SM CLR M04/M08 A3037 RMK AO2 SLP288 T10391083
                 50001 =
2016-02-06 02:53 METAR KLNS 060753Z AUTO 24003KT 10SM CLR M03/M08 A3037 RMK AO2 SLP290 T10331083
                 =
2016-02-06 01:53 METAR KLNS 060653Z AUTO 27003KT 10SM CLR M03/M08 A3037 RMK AO2 SLP288 T10331083
                 =
2016-02-06 00:53 METAR KLNS 060553Z AUTO 30004KT 10SM CLR M04/M08 A3037 RMK AO2 SLP287 T10391083
                 10006 21039 50005 =
2016-02-05 23:53 METAR KLNS 060453Z AUTO 26004KT 10SM CLR M02/M08 A3037 RMK AO2 SLP288 T10221083
                 400391039 =
2016-02-05 22:53 METAR KLNS 060353Z AUTO 28006KT 10SM CLR M02/M08 A3035 RMK AO2 SLP283 T10221083
                 =
2016-02-05 21:53 METAR KLNS 060253Z 23004KT 10SM CLR M02/M08 A3035 RMK AO2 SLP282 T10171078 51010
                 =
2016-02-05 20:53 METAR KLNS 060153Z 29007KT 10SM CLR M02/M07 A3034 RMK AO2 SLP280 T10171067 =
2016-02-05 19:53 METAR KLNS 060053Z 29007KT 10SM CLR M01/M07 A3033 RMK AO2 SLP276 T10061067 =
2016-02-05 18:53 METAR KLNS 052353Z 27006KT 10SM CLR 01/M06 A3032 RMK AO2 SLP271 60000 T00061061
                 10033 20006 51027 =
2016-02-05 17:53 METAR KLNS 052253Z 29007KT 10SM SCT055 02/M06 A3030 RMK AO2 SLP265 T00171056 =
2016-02-05 16:53 METAR KLNS 052153Z 33009KT 10SM BKN042 BKN055 03/M05 A3027 RMK AO2 SLP253
                 T00281050 =
2016-02-05 15:53 METAR KLNS 052053Z 29017KT 10SM OVC055 03/M04 A3024 RMK AO2 SLP243 60000
                 T00331039 53009 =
2016-02-05 14:53 METAR KLNS 051953Z 31011G21KT 10SM SCT042 SCT050 BKN060 03/M04 A3022 RMK AO2
                 SLP237 T00281044 =
2016-02-05 13:53 METAR KLNS 051853Z 33015G22KT 10SM FEW065 03/M05 A3021 RMK AO2 PK WND 32027/1755
                 SNB1756E07 SLP234 P0000 T00331050 =

Support USWX by starting your Amazon purchase here.